Time;durP1;ratioP1;P1;durP2;ratioP2;P2;SDS_P1;SDS_P2;PMS_P1;PMS_P2;Temp;Humidity;BMP_temperature;BMP_pressure;BME280_temperature;BME280_humidity;BME280_pressure;Samples;Min_cycle;Max_cycle;Signal;HPM_P1;HPM_P2
2022/05/10 00:01:25;;;;;;;8.63;5.85;;;11.20;99.90;;;;;;5012503;28;20041;-75
2022/05/10 00:03:51;;;;;;;7.38;5.50;;;11.10;99.90;;;;;;5031465;28;20041;-75
2022/05/10 00:06:17;;;;;;;9.32;5.68;;;11.00;99.90;;;;;;5030464;28;20487;-75
2022/05/10 00:08:44;;;;;;;9.30;5.90;;;11.00;99.90;;;;;;5037414;28;20050;-75
2022/05/10 00:11:12;;;;;;;9.38;5.75;;;10.90;99.90;;;;;;5015446;28;20041;-75
2022/05/10 00:13:39;;;;;;;8.90;6.22;;;10.80;99.90;;;;;;5014877;28;20125;-75
2022/05/10 00:16:15;;;;;;;8.07;5.57;;;10.80;99.90;;;;;;5037588;28;20049;-75
2022/05/10 00:18:44;;;;;;;7.22;6.05;;;10.80;99.90;;;;;;5021554;28;20447;-75
2022/05/10 00:21:12;;;;;;;10.95;6.05;;;10.70;99.90;;;;;;5015338;28;20043;-75
2022/05/10 00:23:40;;;;;;;10.00;7.18;;;10.70;99.90;;;;;;5035023;28;20090;-76
2022/05/10 00:26:08;;;;;;;10.88;7.03;;;10.60;99.90;;;;;;5027689;28;20047;-76
2022/05/10 00:28:39;;;;;;;7.22;6.03;;;10.70;99.90;;;;;;5049325;28;20029;-75
2022/05/10 00:31:07;;;;;;;7.75;6.22;;;10.60;99.90;;;;;;5019675;28;20059;-75
2022/05/10 00:33:37;;;;;;;12.57;6.55;;;10.60;99.90;;;;;;5026010;28;20537;-75
2022/05/10 00:36:04;;;;;;;9.43;6.32;;;10.60;99.90;;;;;;5021247;28;20042;-75
2022/05/10 00:38:35;;;;;;;7.32;5.80;;;10.50;99.90;;;;;;5024647;28;20037;-75
2022/05/10 00:41:25;;;;;;;10.38;6.63;;;10.60;99.90;;;;;;5018973;28;20081;-75
2022/05/10 00:44:25;;;;;;;10.00;6.68;;;10.50;99.90;;;;;;5033252;28;20029;-75
2022/05/10 00:47:17;;;;;;;7.68;6.03;;;10.50;99.90;;;;;;5026561;28;20049;-76
2022/05/10 00:49:57;;;;;;;8.45;5.85;;;10.50;99.90;;;;;;5027142;28;20472;-75
2022/05/10 00:52:46;;;;;;;9.05;5.43;;;10.50;99.90;;;;;;5042484;28;20521;-75
2022/05/10 00:55:23;;;;;;;9.23;5.70;;;10.50;99.90;;;;;;5023745;28;20520;-75
2022/05/10 00:58:00;;;;;;;8.43;5.80;;;10.50;99.90;;;;;;5040104;28;20128;-75
2022/05/10 01:00:31;;;;;;;9.10;5.97;;;10.40;99.90;;;;;;5046447;28;20136;-75
2022/05/10 01:03:12;;;;;;;11.13;5.45;;;10.40;99.90;;;;;;5038354;28;20613;-75
2022/05/10 01:06:00;;;;;;;8.10;5.70;;;10.30;99.90;;;;;;5033023;28;20033;-75
2022/05/10 01:09:13;;;;;;;9.10;5.78;;;10.30;99.90;;;;;;5033670;28;20324;-74
2022/05/10 01:12:04;;;;;;;7.95;5.45;;;10.30;99.90;;;;;;5016021;28;20045;-75
2022/05/10 01:14:46;;;;;;;9.40;6.65;;;10.30;99.90;;;;;;5043350;28;20051;-75
2022/05/10 01:17:17;;;;;;;9.20;6.28;;;10.20;99.90;;;;;;5029693;28;20048;-74
2022/05/10 01:19:45;;;;;;;8.98;6.30;;;10.30;99.90;;;;;;5033964;28;20189;-75
2022/05/10 01:22:21;;;;;;;9.60;5.57;;;10.20;99.90;;;;;;5035426;28;20127;-75
2022/05/10 01:25:31;;;;;;;11.73;5.97;;;10.10;99.90;;;;;;5033258;28;20044;-75
2022/05/10 01:28:28;;;;;;;10.32;6.65;;;10.20;99.90;;;;;;5023961;28;20045;-74
2022/05/10 01:31:02;;;;;;;8.85;6.25;;;10.20;99.90;;;;;;5038516;28;20486;-75
2022/05/10 01:33:46;;;;;;;10.93;6.22;;;10.10;99.90;;;;;;5034143;28;20045;-75
2022/05/10 01:36:24;;;;;;;9.10;6.35;;;10.10;99.90;;;;;;5005597;28;20041;-75
2022/05/10 01:39:02;;;;;;;9.02;6.80;;;10.10;99.90;;;;;;5022900;28;20037;-75
2022/05/10 01:41:50;;;;;;;10.55;6.40;;;10.20;99.90;;;;;;5014329;28;20120;-76
2022/05/10 01:44:27;;;;;;;10.32;6.60;;;10.30;99.90;;;;;;5053943;28;20104;-74
2022/05/10 01:47:10;;;;;;;7.47;6.47;;;10.40;99.90;;;;;;5019013;28;20491;-76
2022/05/10 01:49:43;;;;;;;9.07;6.25;;;10.40;99.90;;;;;;5050525;28;20464;-75
2022/05/10 01:52:16;;;;;;;10.05;6.30;;;10.50;99.90;;;;;;5063414;28;20491;-75
2022/05/10 01:54:59;;;;;;;13.40;6.80;;;10.60;99.90;;;;;;5049753;28;20047;-75
2022/05/10 01:57:27;;;;;;;12.35;6.70;;;10.60;99.90;;;;;;5016952;28;20090;-75
2022/05/10 02:00:02;;;;;;;10.23;6.57;;;10.60;99.90;;;;;;5021903;28;20071;-75
2022/05/10 02:02:32;;;;;;;8.60;5.97;;;10.50;99.90;;;;;;4997912;28;20045;-75
2022/05/10 02:05:03;;;;;;;8.60;5.85;;;10.50;99.90;;;;;;4997812;28;20096;-75
2022/05/10 02:07:33;;;;;;;7.47;5.93;;;10.50;99.90;;;;;;5038951;28;20361;-75
2022/05/10 02:10:04;;;;;;;9.65;5.93;;;10.50;99.90;;;;;;5035631;28;20119;-75
2022/05/10 02:13:02;;;;;;;10.50;6.22;;;10.50;99.90;;;;;;5030507;28;20044;-75
2022/05/10 02:15:42;;;;;;;11.18;6.57;;;10.50;99.90;;;;;;5040898;28;20057;-75
2022/05/10 02:18:32;;;;;;;12.77;6.70;;;10.50;99.90;;;;;;5033282;28;20033;-75
2022/05/10 02:21:07;;;;;;;10.00;6.32;;;10.50;99.90;;;;;;5017330;28;20076;-75
2022/05/10 02:24:00;;;;;;;9.13;6.88;;;10.40;99.90;;;;;;5015982;28;20041;-75
2022/05/10 02:26:38;;;;;;;9.77;7.47;;;10.50;99.90;;;;;;5016743;28;20470;-75
2022/05/10 02:29:24;;;;;;;9.65;6.43;;;10.60;99.90;;;;;;5023572;28;20096;-75
2022/05/10 02:35:01;;;;;;;12.63;7.18;;;10.80;99.90;;;;;;5033993;28;20107;-75
2022/05/10 02:37:26;;;;;;;10.55;7.35;;;10.80;99.90;;;;;;5032060;28;20045;-75
2022/05/10 02:39:52;;;;;;;10.27;7.10;;;10.80;99.90;;;;;;5015758;28;20040;-75
2022/05/10 02:42:21;;;;;;;9.65;6.65;;;10.90;99.90;;;;;;5033269;28;20491;-75
2022/05/10 02:44:50;;;;;;;10.07;6.97;;;10.90;99.90;;;;;;5016853;28;20040;-74
2022/05/10 02:47:33;;;;;;;10.18;7.50;;;10.90;99.90;;;;;;5037090;28;20123;-75
2022/05/10 02:50:05;;;;;;;10.93;7.03;;;10.90;99.90;;;;;;5025434;28;20610;-74
2022/05/10 02:52:31;;;;;;;10.23;7.20;;;11.00;99.90;;;;;;5030088;28;20044;-74
2022/05/10 02:55:09;;;;;;;8.93;7.80;;;11.10;99.90;;;;;;5024013;28;20082;-74
2022/05/10 02:57:40;;;;;;;13.43;7.35;;;11.00;99.90;;;;;;5022932;28;20037;-75
2022/05/10 03:00:07;;;;;;;10.80;8.18;;;11.00;99.90;;;;;;5044944;28;20403;-74
2022/05/10 03:02:39;;;;;;;10.82;7.47;;;11.10;99.90;;;;;;5025693;28;20048;-74
2022/05/10 03:05:07;;;;;;;10.93;7.65;;;11.20;99.90;;;;;;5024481;28;20037;-74
2022/05/10 03:07:32;;;;;;;9.93;7.93;;;11.10;99.90;;;;;;5021869;28;20429;-75
2022/05/10 03:09:58;;;;;;;10.55;7.40;;;11.20;99.90;;;;;;5025608;28;20056;-74
2022/05/10 03:12:24;;;;;;;10.45;7.28;;;11.20;99.90;;;;;;5025130;28;20064;-74
2022/05/10 03:14:50;;;;;;;10.82;8.00;;;11.20;99.90;;;;;;5016098;28;20452;-74
2022/05/10 03:17:16;;;;;;;14.45;7.75;;;11.20;99.90;;;;;;5024058;28;20067;-74
2022/05/10 03:19:46;;;;;;;11.93;8.13;;;11.30;99.90;;;;;;5048710;28;20086;-75
2022/05/10 03:22:12;;;;;;;11.73;8.02;;;11.30;99.90;;;;;;5031195;28;20054;-74
2022/05/10 03:24:37;;;;;;;11.65;7.85;;;11.30;99.90;;;;;;5036143;28;20550;-74
2022/05/10 03:27:06;;;;;;;11.52;8.30;;;11.30;99.90;;;;;;5021019;28;20041;-75
2022/05/10 03:29:32;;;;;;;11.52;8.27;;;11.40;99.90;;;;;;5020986;28;20415;-74
2022/05/10 03:31:58;;;;;;;12.43;8.38;;;11.40;99.90;;;;;;5014272;28;20041;-75
2022/05/10 03:37:08;;;;;;;11.98;8.52;;;11.50;99.90;;;;;;5033709;28;20120;-74
2022/05/10 03:39:35;;;;;;;12.15;8.38;;;11.50;99.90;;;;;;5026549;28;20068;-75
2022/05/10 03:42:04;;;;;;;12.50;8.65;;;11.50;99.90;;;;;;5030898;28;20063;-75
2022/05/10 03:44:35;;;;;;;11.30;8.20;;;11.50;99.90;;;;;;5013849;28;20037;-75
2022/05/10 03:47:01;;;;;;;11.98;8.23;;;11.50;99.90;;;;;;5011524;28;20041;-74
2022/05/10 03:49:27;;;;;;;12.98;8.65;;;11.60;99.90;;;;;;5039321;28;20040;-75
2022/05/10 03:51:56;;;;;;;12.32;8.48;;;11.60;99.90;;;;;;5024694;28;20518;-75
2022/05/10 03:54:23;;;;;;;13.20;8.88;;;11.60;99.90;;;;;;5024762;28;20044;-75
2022/05/10 03:56:48;;;;;;;11.15;8.52;;;11.50;99.90;;;;;;5036188;28;20048;-75
2022/05/10 03:59:18;;;;;;;12.32;8.38;;;11.60;99.90;;;;;;5031320;28;20174;-75
2022/05/10 04:01:45;;;;;;;12.30;8.88;;;11.60;99.90;;;;;;5027236;28;20045;-74
2022/05/10 04:04:14;;;;;;;13.80;8.35;;;11.60;99.90;;;;;;5044049;28;20120;-76
2022/05/10 04:06:40;;;;;;;17.02;9.45;;;11.60;99.90;;;;;;5017947;28;20037;-77
2022/05/10 04:09:06;;;;;;;13.55;9.38;;;11.70;99.90;;;;;;5024575;28;20397;-76
2022/05/10 04:11:33;;;;;;;13.20;8.80;;;11.70;99.90;;;;;;4999747;28;20045;-77
2022/05/10 04:14:03;;;;;;;12.65;9.20;;;11.70;99.90;;;;;;5027329;28;20091;-77
2022/05/10 04:16:29;;;;;;;11.38;8.73;;;11.70;99.90;;;;;;5034501;28;20138;-77
2022/05/10 04:18:54;;;;;;;13.27;8.73;;;11.80;99.90;;;;;;5034934;28;20115;-76
2022/05/10 04:21:29;;;;;;;12.25;9.10;;;11.70;99.90;;;;;;5013693;28;20503;-74
2022/05/10 04:23:54;;;;;;;11.00;9.05;;;11.80;99.90;;;;;;5017113;28;20487;-74
2022/05/10 04:26:20;;;;;;;12.52;9.68;;;11.90;99.90;;;;;;5039476;28;20044;-75
2022/05/10 04:28:46;;;;;;;12.07;9.27;;;11.90;99.90;;;;;;5025553;28;20410;-77
2022/05/10 04:31:12;;;;;;;13.77;9.40;;;11.90;99.90;;;;;;5014184;28;20178;-74
2022/05/10 04:33:39;;;;;;;13.18;9.43;;;11.90;99.90;;;;;;5020833;28;20041;-74
2022/05/10 04:36:24;;;;;;;12.15;9.55;;;12.10;99.90;;;;;;5030607;28;20412;-74
2022/05/10 04:38:53;;;;;;;11.57;8.75;;;12.00;99.90;;;;;;5012374;28;20041;-75
2022/05/10 04:41:30;;;;;;;13.35;9.65;;;12.10;99.90;;;;;;5024927;28;20037;-74
2022/05/10 04:44:14;;;;;;;11.75;8.35;;;12.10;99.90;;;;;;5009536;28;20046;-74
2022/05/10 04:46:56;;;;;;;13.70;9.05;;;12.20;99.90;;;;;;5012649;28;20044;-74
2022/05/10 04:49:36;;;;;;;10.90;8.63;;;12.30;99.90;;;;;;5022704;28;20060;-74
2022/05/10 04:52:06;;;;;;;14.23;8.88;;;12.40;99.90;;;;;;5042947;22;20132;-74
2022/05/10 04:54:32;;;;;;;10.93;9.02;;;12.40;99.90;;;;;;4980770;28;20053;-74
2022/05/10 04:57:04;;;;;;;11.07;8.98;;;12.40;99.90;;;;;;4979136;28;20063;-75
2022/05/10 04:59:46;;;;;;;12.73;9.23;;;12.50;99.90;;;;;;4979260;28;20046;-75
2022/05/10 05:02:14;;;;;;;12.48;9.50;;;12.60;99.90;;;;;;4967746;28;20063;-74
2022/05/10 05:04:40;;;;;;;11.68;8.85;;;12.70;99.90;;;;;;4972949;28;20092;-75
2022/05/10 05:07:15;;;;;;;13.45;9.52;;;12.80;99.90;;;;;;4989227;28;20038;-76
2022/05/10 05:10:02;;;;;;;11.73;9.35;;;12.80;99.90;;;;;;4984635;28;20070;-75
2022/05/10 05:12:57;;;;;;;12.32;9.07;;;12.90;99.90;;;;;;4985940;28;20042;-75
2022/05/10 05:15:32;;;;;;;12.65;9.30;;;13.00;99.90;;;;;;4969086;28;20042;-75
2022/05/10 05:18:07;;;;;;;11.50;8.77;;;13.10;99.90;;;;;;4974535;28;20050;-78
2022/05/10 05:20:35;;;;;;;11.13;8.75;;;13.20;99.90;;;;;;4960978;28;20320;-78
2022/05/10 05:23:08;;;;;;;12.85;9.55;;;13.20;99.90;;;;;;4974133;28;20068;-78
2022/05/10 05:25:39;;;;;;;;;;;13.40;99.90;;;;;;4998356;28;20046;-78
2022/05/10 05:28:06;;;;;;;12.85;8.90;;;13.50;99.90;;;;;;4977679;28;19924;-77
2022/05/10 05:30:35;;;;;;;11.85;8.77;;;13.60;99.90;;;;;;4968189;28;20034;-78
2022/05/10 05:33:08;;;;;;;12.38;9.23;;;13.80;99.90;;;;;;4991149;28;20049;-78
2022/05/10 05:35:36;;;;;;;11.73;8.90;;;13.90;99.90;;;;;;4972634;28;20141;-78
2022/05/10 05:38:08;;;;;;;12.02;9.68;;;13.90;99.90;;;;;;4979619;28;20298;-75
2022/05/10 05:40:36;;;;;;;10.98;8.27;;;14.00;99.90;;;;;;4982392;28;20041;-76
2022/05/10 05:43:24;;;;;;;10.80;8.63;;;14.10;99.90;;;;;;4997001;28;20042;-76
2022/05/10 05:46:02;;;;;;;10.68;8.65;;;14.20;99.90;;;;;;4956741;28;20046;-75
2022/05/10 05:48:45;;;;;;;11.80;7.90;;;14.30;99.90;;;;;;4988456;28;20050;-75
2022/05/10 05:51:17;;;;;;;10.75;8.70;;;14.40;99.90;;;;;;4958459;28;20044;-75
2022/05/10 05:53:58;;;;;;;13.60;9.38;;;14.60;99.90;;;;;;4975262;28;20054;-75
2022/05/10 05:56:29;;;;;;;11.52;8.40;;;14.70;99.90;;;;;;4975088;28;20130;-75
2022/05/10 05:59:22;;;;;;;10.95;8.43;;;14.80;99.90;;;;;;4990408;28;20054;-75
2022/05/10 06:02:07;;;;;;;11.57;8.18;;;15.00;99.90;;;;;;5038437;22;20047;-74
2022/05/10 06:04:53;;;;;;;12.30;8.57;;;15.10;99.90;;;;;;5074620;28;20058;-75
2022/05/10 06:07:36;;;;;;;10.70;8.18;;;15.30;99.90;;;;;;5068835;28;20040;-75
2022/05/10 06:10:32;;;;;;;11.10;8.55;;;15.40;99.90;;;;;;5063252;28;20044;-77
2022/05/10 06:13:20;;;;;;;12.25;8.50;;;15.50;99.90;;;;;;5133233;23;20053;-77
2022/05/10 06:16:07;;;;;;;10.02;8.32;;;15.70;99.90;;;;;;5027689;28;20064;-77
2022/05/10 06:18:42;;;;;;;11.50;8.27;;;16.00;99.90;;;;;;5043176;28;20041;-76
2022/05/10 06:21:17;;;;;;;10.82;8.65;;;16.10;99.90;;;;;;5023801;28;20029;-75
2022/05/10 06:23:51;;;;;;;10.90;8.80;;;16.30;99.90;;;;;;5039044;28;20446;-75
2022/05/10 06:26:32;;;;;;;13.75;9.65;;;16.50;99.90;;;;;;5022511;28;20080;-75
2022/05/10 06:29:03;;;;;;;12.32;8.68;;;16.60;99.90;;;;;;5019119;28;20037;-75
2022/05/10 06:31:39;;;;;;;10.90;9.30;;;16.70;99.90;;;;;;5044161;22;20492;-75
2022/05/10 06:34:26;;;;;;;12.48;9.00;;;16.80;99.90;;;;;;5019898;28;20076;-75
2022/05/10 06:36:58;;;;;;;11.73;8.23;;;16.80;99.90;;;;;;5026401;28;20037;-75
2022/05/10 06:39:29;;;;;;;12.10;9.00;;;16.90;99.90;;;;;;5037579;28;20049;-75
2022/05/10 06:41:58;;;;;;;12.02;8.95;;;16.90;99.90;;;;;;5039582;28;20045;-75
2022/05/10 06:44:33;;;;;;;11.52;8.52;;;16.90;99.90;;;;;;5024875;28;20156;-75
2022/05/10 06:47:07;;;;;;;12.15;8.57;;;17.00;99.90;;;;;;5023880;28;20374;-75
2022/05/10 06:49:47;;;;;;;12.25;8.35;;;17.10;99.90;;;;;;5021882;28;20041;-75
2022/05/10 06:52:27;;;;;;;12.00;8.88;;;17.20;99.90;;;;;;5078815;23;20403;-75
2022/05/10 06:55:14;;;;;;;12.13;8.70;;;17.30;99.90;;;;;;5011984;28;20527;-75
2022/05/10 06:57:57;;;;;;;11.65;8.90;;;17.50;99.90;;;;;;5001975;28;20084;-75
2022/05/10 07:00:34;;;;;;;11.02;8.13;;;17.70;99.90;;;;;;5007202;28;20045;-75
2022/05/10 07:06:21;;;;;;;11.88;9.23;;;18.20;99.30;;;;;;4994241;28;20187;-75
2022/05/10 07:08:52;;;;;;;10.18;8.88;;;18.40;99.30;;;;;;4981775;28;20046;-75
2022/05/10 07:11:28;;;;;;;10.02;8.45;;;18.60;97.40;;;;;;5000887;28;20082;-75
2022/05/10 07:14:02;;;;;;;10.98;8.80;;;18.80;95.10;;;;;;4987759;28;20042;-75
2022/05/10 07:16:45;;;;;;;11.75;8.32;;;19.00;95.50;;;;;;5013038;28;20042;-75
2022/05/10 07:19:19;;;;;;;10.63;8.15;;;19.10;93.40;;;;;;5005425;28;20092;-75
2022/05/10 07:21:56;;;;;;;13.35;8.15;;;19.20;91.50;;;;;;4996471;28;20044;-75
2022/05/10 07:24:42;;;;;;;9.82;8.02;;;19.40;91.60;;;;;;5002678;28;20104;-75
2022/05/10 07:27:08;;;;;;;10.25;8.48;;;19.50;91.10;;;;;;5008237;28;20467;-76
2022/05/10 07:29:43;;;;;;;10.65;8.57;;;19.70;91.70;;;;;;4989247;28;20096;-77
2022/05/10 07:32:14;;;;;;;12.55;7.95;;;19.90;91.30;;;;;;4996578;28;20048;-77
2022/05/10 07:35:04;;;;;;;10.80;7.68;;;20.00;91.10;;;;;;4989959;28;20049;-77
2022/05/10 07:37:39;;;;;;;;;;;20.20;75.90;;;;;;5006453;28;20042;-77
2022/05/10 07:40:16;;;;;;;10.57;7.90;;;20.40;72.50;;;;;;5004840;28;19964;-77
2022/05/10 07:42:56;;;;;;;9.02;6.65;;;20.50;82.20;;;;;;4995640;28;20041;-77
2022/05/10 07:45:47;;;;;;;8.82;6.88;;;20.70;74.10;;;;;;5010803;28;20073;-76
2022/05/10 07:48:45;;;;;;;9.70;7.13;;;20.90;76.50;;;;;;5008202;28;20085;-77
2022/05/10 07:51:19;;;;;;;9.07;6.40;;;21.10;77.60;;;;;;4993513;28;20073;-77
2022/05/10 07:53:55;;;;;;;14.20;6.20;;;21.50;70.90;;;;;;5011391;28;20038;-77
2022/05/10 07:56:29;;;;;;;7.38;6.30;;;21.60;72.10;;;;;;5000549;28;20096;-77
2022/05/10 07:59:04;;;;;;;7.93;6.47;;;21.90;72.80;;;;;;5010805;28;20137;-75
2022/05/10 08:01:51;;;;;;;7.47;6.18;;;22.10;70.00;;;;;;4990317;28;20037;-75
2022/05/10 08:04:23;;;;;;;8.18;6.30;;;22.20;67.50;;;;;;4989191;28;20423;-75
2022/05/10 08:07:01;;;;;;;8.93;6.20;;;22.20;65.90;;;;;;5004826;28;20049;-75
2022/05/10 08:09:30;;;;;;;6.90;5.57;;;22.10;63.70;;;;;;4988318;28;20050;-75
2022/05/10 08:12:01;;;;;;;9.23;5.97;;;22.10;64.20;;;;;;5001724;28;20073;-76
2022/05/10 08:14:38;;;;;;;7.43;5.80;;;21.90;65.10;;;;;;5017548;28;20057;-76
2022/05/10 08:17:09;;;;;;;9.70;6.00;;;21.70;62.60;;;;;;5010992;28;20488;-76
2022/05/10 08:19:38;;;;;;;9.73;5.82;;;21.50;63.30;;;;;;5007068;28;20058;-75
2022/05/10 08:22:03;;;;;;;6.72;5.95;;;21.30;64.60;;;;;;5008113;28;20061;-75
2022/05/10 08:24:45;;;;;;;7.13;6.40;;;21.20;65.80;;;;;;4987314;28;20472;-75
2022/05/10 08:27:10;;;;;;;7.32;6.15;;;21.10;65.00;;;;;;4998346;28;20046;-76
2022/05/10 08:29:44;;;;;;;8.02;6.20;;;21.00;66.60;;;;;;4986013;28;20419;-76
2022/05/10 08:32:18;;;;;;;7.85;6.32;;;21.00;66.60;;;;;;5009428;28;20073;-77
2022/05/10 08:34:47;;;;;;;8.75;6.65;;;20.90;66.50;;;;;;5009804;28;20499;-78
2022/05/10 08:37:13;;;;;;;9.00;6.22;;;20.90;68.00;;;;;;4986636;28;20042;-77
2022/05/10 08:39:46;;;;;;;8.90;7.22;;;20.90;68.00;;;;;;4984474;28;20050;-78
2022/05/10 08:42:22;;;;;;;7.28;5.97;;;21.10;66.10;;;;;;4993620;28;20093;-76
2022/05/10 08:45:01;;;;;;;7.85;7.03;;;21.20;68.50;;;;;;5001565;28;20049;-77
2022/05/10 08:47:40;;;;;;;7.90;5.70;;;21.20;67.90;;;;;;4980770;28;20078;-77
2022/05/10 08:50:10;;;;;;;7.15;6.38;;;21.20;68.80;;;;;;5023738;28;20108;-77
2022/05/10 08:52:46;;;;;;;8.48;5.93;;;21.30;68.70;;;;;;4981803;28;20038;-77
2022/05/10 08:55:25;;;;;;;8.60;6.32;;;21.30;67.80;;;;;;4975987;28;20046;-78
2022/05/10 08:58:19;;;;;;;8.95;6.40;;;21.40;68.70;;;;;;4985265;28;20046;-77
2022/05/10 09:01:00;;;;;;;8.27;6.60;;;21.50;66.90;;;;;;5002100;28;20580;-78
2022/05/10 09:03:50;;;;;;;9.25;6.75;;;21.50;66.60;;;;;;4976701;28;20049;-78
2022/05/10 09:06:31;;;;;;;7.53;6.18;;;21.50;65.00;;;;;;5004698;28;20042;-78
2022/05/10 09:09:44;;;;;;;6.65;5.90;;;21.60;65.30;;;;;;4990786;28;20090;-78
2022/05/10 09:12:36;;;;;;;7.72;6.18;;;21.70;64.10;;;;;;5005288;28;20061;-76
2022/05/10 09:15:10;;;;;;;8.45;7.05;;;21.70;65.50;;;;;;5004587;28;20049;-77
2022/05/10 09:17:39;;;;;;;;;;;21.70;66.50;;;;;;4989086;28;20053;-78
2022/05/10 09:20:11;;;;;;;7.22;6.50;;;21.80;65.60;;;;;;4990472;28;20416;-75
2022/05/10 09:23:11;;;;;;;7.88;7.07;;;22.00;67.10;;;;;;4975388;28;20636;-76
2022/05/10 09:25:41;;;;;;;7.95;7.15;;;22.20;63.90;;;;;;4987179;28;20061;-76
2022/05/10 09:28:13;;;;;;;7.07;6.38;;;22.50;65.20;;;;;;4983259;28;20411;-76
2022/05/10 09:34:45;;;;;;;7.28;6.57;;;23.10;66.00;;;;;;4991091;28;20033;-76
2022/05/10 09:36:31;;;;;;;8.43;6.57;;;24.20;62.40;;;;;;4998928;28;20042;-75
2022/05/10 09:39:23;;;;;;;7.75;6.95;;;24.70;60.90;;;;;;5014699;28;20046;-75
2022/05/10 09:41:56;;;;;;;8.93;7.43;;;24.90;58.50;;;;;;4986312;28;20480;-76
2022/05/10 09:44:29;;;;;;;8.23;7.38;;;24.90;57.80;;;;;;4990375;28;20404;-75
2022/05/10 09:47:26;;;;;;;8.40;7.55;;;24.90;59.30;;;;;;5000927;28;20184;-76
2022/05/10 09:50:17;;;;;;;9.85;7.28;;;24.80;57.80;;;;;;4992785;28;20420;-76
2022/05/10 09:52:50;;;;;;;8.30;7.50;;;24.60;58.60;;;;;;5018506;28;20052;-76
2022/05/10 09:55:31;;;;;;;8.73;7.60;;;24.50;58.50;;;;;;4989082;28;20049;-76
2022/05/10 09:58:48;;;;;;;9.05;7.70;;;24.40;57.50;;;;;;4962317;28;20411;-76
2022/05/10 10:01:50;;;;;;;8.95;8.05;;;24.30;59.00;;;;;;4964194;28;20035;-76
2022/05/10 10:04:48;;;;;;;9.93;8.45;;;24.30;59.00;;;;;;4991767;28;20080;-76
2022/05/10 10:07:25;;;;;;;8.55;7.70;;;24.30;58.50;;;;;;4974150;28;20105;-76
2022/05/10 10:10:23;;;;;;;7.95;7.20;;;24.30;59.60;;;;;;4992665;28;20474;-76
2022/05/10 10:12:55;;;;;;;9.10;7.35;;;24.40;58.40;;;;;;5044827;23;20439;-76
2022/05/10 10:15:40;;;;;;;7.53;6.82;;;24.30;59.20;;;;;;5021320;28;20068;-77
2022/05/10 10:18:34;;;;;;;7.78;7.07;;;24.20;59.10;;;;;;5020015;28;20099;-77
2022/05/10 10:21:07;;;;;;;9.43;7.30;;;24.30;58.80;;;;;;5012767;28;20087;-76
2022/05/10 10:23:51;;;;;;;8.05;7.25;;;24.30;60.40;;;;;;5004428;28;20142;-76
2022/05/10 10:26:47;;;;;;;7.57;6.80;;;24.50;58.30;;;;;;5071841;23;20041;-80
2022/05/10 10:29:42;;;;;;;7.00;6.13;;;24.70;60.80;;;;;;5056231;28;20068;-80
2022/05/10 10:32:25;;;;;;;7.45;6.63;;;24.90;59.80;;;;;;5075649;28;20032;-80
2022/05/10 10:35:01;;;;;;;7.70;7.00;;;24.90;60.30;;;;;;5062344;28;20438;-80
2022/05/10 10:37:39;;;;;;;7.80;6.43;;;24.90;58.90;;;;;;5056645;28;20309;-81
2022/05/10 10:40:25;;;;;;;7.03;6.28;;;24.80;58.10;;;;;;5034501;28;20033;-80
2022/05/10 10:43:13;;;;;;;8.38;6.38;;;24.80;59.30;;;;;;5028580;28;20445;-80
2022/05/10 10:45:45;;;;;;;6.82;6.18;;;24.70;58.90;;;;;;5037342;28;20048;-80
2022/05/10 10:48:53;;;;;;;8.15;5.90;;;24.70;59.40;;;;;;5044120;28;20034;-81
2022/05/10 10:51:21;;;;;;;6.05;5.45;;;24.70;58.00;;;;;;5023124;28;20695;-81
2022/05/10 10:53:47;;;;;;;5.63;4.53;;;24.60;60.40;;;;;;5025421;28;20079;-79
2022/05/10 10:56:34;;;;;;;7.43;4.75;;;24.70;59.30;;;;;;5042707;28;20047;-80
2022/05/10 10:59:18;;;;;;;4.47;4.00;;;24.80;61.10;;;;;;5039186;28;20438;-81
2022/05/10 11:02:26;;;;;;;6.03;4.57;;;25.00;60.30;;;;;;5045843;28;20039;-80
2022/05/10 11:05:17;;;;;;;5.80;4.50;;;25.30;59.00;;;;;;5016256;28;20249;-81
2022/05/10 11:07:43;;;;;;;5.55;4.70;;;25.20;58.40;;;;;;5034028;28;20049;-80
2022/05/10 11:10:15;;;;;;;6.15;5.00;;;25.00;58.80;;;;;;5048011;28;20052;-80
2022/05/10 11:13:11;;;;;;;6.25;5.03;;;24.70;58.90;;;;;;5044855;28;20044;-80
2022/05/10 11:16:06;;;;;;;7.07;5.15;;;24.60;60.30;;;;;;5037991;28;20045;-82
2022/05/10 11:18:53;;;;;;;8.07;5.65;;;24.60;61.50;;;;;;5039420;28;20044;-82
2022/05/10 11:21:27;;;;;;;7.38;5.20;;;24.70;60.90;;;;;;5043570;28;20040;-78
2022/05/10 11:24:08;;;;;;;7.55;4.70;;;24.80;59.60;;;;;;5042984;28;20033;-81
2022/05/10 11:27:07;;;;;;;6.68;4.75;;;25.10;60.50;;;;;;5047713;28;20041;-81
2022/05/10 11:29:36;;;;;;;4.93;4.43;;;25.40;59.70;;;;;;5054283;28;20064;-79
2022/05/10 11:32:15;;;;;;;6.65;4.20;;;25.40;58.10;;;;;;5048014;28;20402;-80
2022/05/10 11:35:08;;;;;;;5.20;4.65;;;25.30;56.00;;;;;;5033941;28;20060;-79
2022/05/10 11:37:41;;;;;;;5.20;3.97;;;25.10;56.60;;;;;;5044628;28;20471;-80
2022/05/10 11:40:31;;;;;;;5.93;3.75;;;25.20;57.70;;;;;;5057078;28;20495;-80
2022/05/10 11:43:30;;;;;;;5.95;4.00;;;25.30;57.60;;;;;;5047393;28;20040;-82
2022/05/10 11:46:31;;;;;;;5.18;4.07;;;25.40;56.40;;;;;;5049423;28;20522;-80
2022/05/10 11:49:15;;;;;;;4.82;4.00;;;25.90;56.90;;;;;;5024627;28;20229;-82
2022/05/10 11:52:09;;;;;;;4.70;4.07;;;26.70;55.90;;;;;;5050149;28;20048;-81
2022/05/10 11:55:03;;;;;;;5.05;3.88;;;27.00;52.30;;;;;;5050321;28;20064;-83
2022/05/10 11:57:33;;;;;;;8.90;4.00;;;27.20;54.10;;;;;;5046294;28;20044;-82
2022/05/10 12:00:34;;;;;;;5.50;4.00;;;27.40;53.30;;;;;;5043887;28;20037;-83
2022/05/10 12:03:02;;;;;;;4.78;4.20;;;27.30;52.80;;;;;;4992896;28;20090;-81
2022/05/10 12:05:31;;;;;;;6.07;4.05;;;27.20;53.00;;;;;;5036498;28;20534;-81
2022/05/10 12:08:04;;;;;;;5.43;4.43;;;27.10;53.50;;;;;;5029164;28;20099;-81
2022/05/10 12:10:42;;;;;;;6.25;4.70;;;26.90;53.20;;;;;;5040195;28;20092;-80
2022/05/10 12:13:08;;;;;;;5.32;4.07;;;26.70;53.60;;;;;;5024885;28;20056;-82
2022/05/10 12:21:41;;;;;;;6.13;4.88;;;26.30;52.60;;;;;;5042760;28;20053;-81
2022/05/10 12:24:19;;;;;;;4.80;4.38;;;26.00;54.10;;;;;;5029649;28;20110;-81
2022/05/10 12:27:00;;;;;;;5.38;4.63;;;26.00;52.80;;;;;;5060943;28;20087;-81
2022/05/10 12:29:37;;;;;;;5.05;4.38;;;26.10;53.60;;;;;;5017702;28;20037;-80
2022/05/10 12:32:28;;;;;;;6.43;4.25;;;26.20;54.10;;;;;;5022885;28;20037;-82
2022/05/10 12:34:58;;;;;;;4.50;3.85;;;26.30;53.80;;;;;;5034053;28;20486;-81
2022/05/10 12:37:27;;;;;;;7.20;3.53;;;26.30;55.00;;;;;;5055288;28;20533;-80
2022/05/10 12:40:11;;;;;;;7.82;3.83;;;26.80;54.80;;;;;;5060357;28;20414;-81
2022/05/10 12:43:10;;;;;;;7.00;4.30;;;27.20;53.50;;;;;;5031931;28;20068;-81
2022/05/10 12:45:55;;;;;;;4.72;4.03;;;27.50;52.70;;;;;;5045992;28;20041;-81
2022/05/10 12:48:31;;;;;;;5.28;4.32;;;27.70;52.50;;;;;;5047865;28;20044;-81
2022/05/10 12:51:34;;;;;;;7.32;3.78;;;27.90;52.80;;;;;;5050972;28;20041;-82
2022/05/10 12:54:03;;;;;;;7.97;5.05;;;27.90;53.30;;;;;;5040746;28;20380;-83
2022/05/10 12:56:36;;;;;;;7.13;4.32;;;27.60;52.40;;;;;;5047144;28;20052;-81
2022/05/10 12:59:14;;;;;;;5.32;3.63;;;27.20;52.40;;;;;;5037549;28;20048;-81
2022/05/10 13:01:40;;;;;;;6.13;3.42;;;26.90;52.90;;;;;;5041377;28;20665;-81
2022/05/10 13:04:13;;;;;;;7.60;3.50;;;26.50;53.20;;;;;;5059905;28;21402;-81
2022/05/10 13:07:04;;;;;;;4.93;3.67;;;26.30;53.60;;;;;;5027753;28;20565;-82
2022/05/10 13:09:40;;;;;;;5.25;3.97;;;26.00;53.30;;;;;;5058661;28;20037;-80
2022/05/10 13:12:25;;;;;;;4.90;3.88;;;25.80;54.20;;;;;;5046397;28;20045;-80
2022/05/10 13:14:59;;;;;;;5.55;3.97;;;25.60;54.50;;;;;;5033621;28;20499;-81
2022/05/10 13:17:30;;;;;;;6.70;3.67;;;25.30;54.70;;;;;;5057830;28;20127;-80
2022/05/10 13:19:58;;;;;;;8.20;5.55;;;25.10;55.20;;;;;;5046959;28;20029;-81
2022/05/10 13:22:25;;;;;;;5.68;3.72;;;24.90;55.40;;;;;;5039284;28;20045;-82
2022/05/10 13:24:55;;;;;;;5.32;3.83;;;24.70;55.60;;;;;;5031814;28;20499;-81
2022/05/10 13:27:33;;;;;;;6.15;4.45;;;24.70;56.10;;;;;;5041655;28;20046;-81
2022/05/10 13:30:13;;;;;;;5.78;3.90;;;24.60;56.40;;;;;;5042008;28;20044;-81
2022/05/10 13:32:39;;;;;;;6.78;4.13;;;24.60;57.40;;;;;;5043301;28;20049;-82
2022/05/10 13:35:12;;;;;;;5.05;3.90;;;24.60;57.20;;;;;;5018854;28;20037;-80
2022/05/10 13:37:45;;;;;;;4.47;3.53;;;24.70;56.50;;;;;;5043148;28;20041;-80
2022/05/10 13:40:29;;;;;;;7.50;4.00;;;25.10;56.70;;;;;;5030276;28;20400;-81
2022/05/10 13:43:05;;;;;;;4.65;2.97;;;25.40;55.40;;;;;;5042985;28;20037;-82
2022/05/10 13:45:31;;;;;;;4.15;3.50;;;25.60;54.90;;;;;;5051411;28;20044;-82
2022/05/10 13:48:05;;;;;;;5.03;2.72;;;25.70;54.20;;;;;;5032373;28;20041;-81
2022/05/10 13:50:31;;;;;;;4.90;2.80;;;25.60;54.00;;;;;;5024817;28;20033;-80
2022/05/10 13:53:04;;;;;;;6.10;2.78;;;25.40;54.30;;;;;;5033160;28;20039;-81